createdAt,value
2024-03-01T00:03:52.912Z,81.46
2024-03-01T00:08:57.725Z,81.17
2024-03-01T00:14:01.067Z,80.87
2024-03-01T00:19:05.206Z,80.88
2024-03-01T00:24:08.997Z,80.70
2024-03-01T00:29:12.723Z,80.54
2024-03-01T00:34:16.194Z,80.08
2024-03-01T00:39:19.555Z,80.68
2024-03-01T00:44:24.005Z,81.25
2024-03-01T00:49:28.438Z,82.54
2024-03-01T00:54:31.625Z,81.85
2024-03-01T00:59:35.704Z,81.63
2024-03-01T01:04:39.946Z,82.11
2024-03-01T01:09:43.635Z,81.68
2024-03-01T01:14:46.839Z,81.76
2024-03-01T01:19:50.154Z,81.37
2024-03-01T01:24:54.247Z,81.34
2024-03-01T01:29:57.640Z,81.44
2024-03-01T01:35:01.033Z,81.06
2024-03-01T01:40:04.376Z,80.89
2024-03-01T01:45:08.468Z,80.95
2024-03-01T01:50:11.671Z,80.90
2024-03-01T01:55:16.970Z,81.29
2024-03-01T02:00:21.289Z,81.72
2024-03-01T02:05:24.622Z,81.99
2024-03-01T02:10:28.158Z,81.55
2024-03-01T02:15:33.378Z,80.81
2024-03-01T02:20:37.302Z,80.83
2024-03-01T02:25:40.663Z,80.18
2024-03-01T02:30:45.791Z,81.58
2024-03-01T02:35:49.367Z,81.41
2024-03-01T02:40:52.441Z,81.81
2024-03-01T02:45:55.564Z,81.24
2024-03-01T02:50:58.790Z,81.38
2024-03-01T02:56:02.433Z,81.00
2024-03-01T03:01:05.822Z,80.69
2024-03-01T03:06:09.066Z,81.30
2024-03-01T03:11:12.376Z,81.11
2024-03-01T03:16:18.615Z,80.81
2024-03-01T03:21:21.813Z,80.97
2024-03-01T03:26:25.392Z,81.45
2024-03-01T03:31:28.820Z,82.04
2024-03-01T03:36:34.247Z,81.61
2024-03-01T03:41:37.658Z,81.75
2024-03-01T03:46:43.735Z,82.28
2024-03-01T03:51:46.769Z,82.52
2024-03-01T03:56:49.930Z,81.62
2024-03-01T04:01:53.309Z,81.27
2024-03-01T04:06:59.275Z,81.69
2024-03-01T04:12:07.183Z,82.08
2024-03-01T04:17:12.481Z,82.26
2024-03-01T04:22:16.583Z,82.78
2024-03-01T04:27:19.776Z,81.70
2024-03-01T04:32:23.157Z,81.54
2024-03-01T04:37:26.513Z,81.86
2024-03-01T04:42:29.857Z,82.11
2024-03-01T04:47:34.244Z,82.14
2024-03-01T04:52:37.497Z,81.19
2024-03-01T04:57:41.573Z,81.99
2024-03-01T05:02:44.795Z,82.22
2024-03-01T05:07:49.838Z,81.26
2024-03-01T05:12:53.400Z,81.62
2024-03-01T05:17:56.562Z,82.57
2024-03-01T05:22:59.783Z,83.30
2024-03-01T05:28:02.966Z,82.54
2024-03-01T05:33:08.897Z,82.71
2024-03-01T05:38:12.376Z,82.92
2024-03-01T05:43:15.612Z,83.51
2024-03-01T05:48:19.236Z,83.77
2024-03-01T05:53:22.438Z,83.51
2024-03-01T05:58:25.870Z,83.52
2024-03-01T06:03:29.366Z,83.01
2024-03-01T06:08:32.786Z,83.08
2024-03-01T06:13:35.924Z,82.67
2024-03-01T06:18:39.076Z,82.06
2024-03-01T06:23:43.232Z,82.54
2024-03-01T06:28:46.617Z,82.19
2024-03-01T06:33:49.711Z,81.79
2024-03-01T06:38:52.968Z,81.18
2024-03-01T06:43:56.135Z,82.50
2024-03-01T06:49:02.134Z,82.76
2024-03-01T06:54:05.284Z,81.73
2024-03-01T06:59:08.550Z,82.16
2024-03-01T07:04:11.884Z,82.92
2024-03-01T07:09:15.528Z,83.29
2024-03-01T07:14:18.717Z,83.03
2024-03-01T07:19:21.931Z,83.34
2024-03-01T07:24:25.598Z,82.89
2024-03-01T07:29:30.164Z,81.97
2024-03-01T07:34:36.204Z,81.68
2024-03-01T07:39:39.805Z,81.33
2024-03-01T07:44:43.228Z,80.92
2024-03-01T07:49:49.975Z,80.07
2024-03-01T07:54:53.237Z,80.29
2024-03-01T07:59:56.391Z,80.87
2024-03-01T08:04:59.604Z,80.87
2024-03-01T08:10:03.132Z,80.38
2024-03-01T08:15:09.364Z,79.74
2024-03-01T08:20:47.935Z,79.54
2024-03-01T08:25:51.304Z,79.60
2024-03-01T08:30:54.853Z,80.11
2024-03-01T08:35:58.168Z,80.29
2024-03-01T08:41:05.072Z,78.64
2024-03-01T08:46:24.368Z,78.54
2024-03-01T08:51:27.637Z,79.87
2024-03-01T08:56:37.143Z,79.37
2024-03-01T09:01:46.782Z,79.12
2024-03-01T09:07:06.279Z,78.37
2024-03-01T09:12:30.865Z,79.05
2024-03-01T09:17:34.190Z,79.92
2024-03-01T09:22:38.149Z,79.92
2024-03-01T09:27:43.924Z,78.75
2024-03-01T09:32:48.242Z,78.64
2024-03-01T09:37:52.338Z,77.67
2024-03-01T09:43:03.799Z,77.79
2024-03-01T09:48:06.911Z,76.17
2024-03-01T09:53:32.818Z,76.13
2024-03-01T09:58:46.237Z,74.93
2024-03-01T10:04:24.142Z,73.69
2024-03-01T10:10:18.474Z,73.40
2024-03-01T10:15:40.214Z,73.48
2024-03-01T10:21:09.109Z,73.60
2024-03-01T10:26:31.543Z,71.81
2024-03-01T10:32:04.979Z,71.38
2024-03-01T10:37:15.700Z,70.34
2024-03-01T10:42:22.051Z,68.93
2024-03-01T10:47:28.338Z,67.95
2024-03-01T10:52:39.258Z,67.84
2024-03-01T10:57:57.105Z,68.23
2024-03-01T11:03:20.459Z,67.65
2024-03-01T11:08:55.511Z,67.56
2024-03-01T11:14:00.356Z,67.06
2024-03-01T11:19:08.387Z,67.68
2024-03-01T11:24:18.251Z,66.92
2024-03-01T11:29:31.934Z,66.96
2024-03-01T11:34:50.035Z,66.41
2024-03-01T11:40:20.651Z,65.61
2024-03-01T11:45:36.064Z,65.10
2024-03-01T11:50:49.681Z,64.39
2024-03-01T11:56:20.844Z,64.27
2024-03-01T12:01:42.644Z,64.35
2024-03-01T12:07:06.410Z,64.02
2024-03-01T12:12:40.001Z,63.55
2024-03-01T12:18:01.764Z,64.37
2024-03-01T12:23:23.806Z,63.90
2024-03-01T12:28:42.009Z,63.23
2024-03-01T12:34:16.594Z,63.91
2024-03-01T12:39:21.773Z,63.96
2024-03-01T12:44:42.436Z,64.70
2024-03-01T12:50:03.943Z,64.57
2024-03-01T12:55:16.483Z,64.69
2024-03-01T13:00:25.396Z,64.16
2024-03-01T13:05:42.305Z,64.16
2024-03-01T13:10:46.763Z,65.01
2024-03-01T13:16:12.011Z,65.53
2024-03-01T13:21:24.354Z,65.97
2024-03-01T13:26:45.501Z,65.22
2024-03-01T13:32:02.270Z,65.44
2024-03-01T13:37:11.911Z,66.45
2024-03-01T13:42:35.745Z,66.42
2024-03-01T13:47:52.127Z,66.42
2024-03-01T13:52:55.607Z,66.35
2024-03-01T13:58:00.611Z,66.65
2024-03-01T14:03:06.934Z,67.02
2024-03-01T14:08:11.965Z,68.28
2024-03-01T14:13:15.414Z,68.43
2024-03-01T14:18:20.747Z,68.89
2024-03-01T14:23:26.535Z,68.98
2024-03-01T14:28:31.290Z,69.07
2024-03-01T14:33:35.187Z,69.76
2024-03-01T14:38:38.698Z,69.95
2024-03-01T14:43:51.940Z,69.80
2024-03-01T14:49:01.257Z,70.14
2024-03-01T14:54:24.693Z,70.86
2024-03-01T14:59:28.125Z,70.96
2024-03-01T15:04:31.358Z,70.47
2024-03-01T15:09:45.407Z,70.86
2024-03-01T15:14:49.098Z,71.00
2024-03-01T15:19:52.706Z,70.86
2024-03-01T15:25:10.490Z,71.67
2024-03-01T15:30:14.042Z,71.83
2024-03-01T15:35:17.232Z,72.84
2024-03-01T15:40:21.839Z,74.16
2024-03-01T15:45:25.777Z,75.24
2024-03-01T15:50:31.239Z,75.15
2024-03-01T15:55:36.612Z,75.89
2024-03-01T16:00:39.850Z,75.89
2024-03-01T16:05:42.909Z,75.52
2024-03-01T16:10:57.723Z,76.39
2024-03-01T16:16:02.462Z,76.18
2024-03-01T16:21:07.572Z,76.30
2024-03-01T16:26:16.673Z,75.93
2024-03-01T16:31:20.497Z,75.60
2024-03-01T16:36:23.988Z,76.09
2024-03-01T16:41:30.388Z,75.86
2024-03-01T16:46:37.280Z,75.81
2024-03-01T16:51:43.971Z,76.09
2024-03-01T16:56:47.221Z,76.56
2024-03-01T17:01:51.524Z,77.90
2024-03-01T17:06:55.872Z,77.16
2024-03-01T17:11:59.250Z,77.81
2024-03-01T17:17:02.822Z,78.52
2024-03-01T17:22:06.258Z,77.45
2024-03-01T17:27:09.542Z,78.35
2024-03-01T17:32:12.815Z,78.13
2024-03-01T17:37:16.041Z,77.95
2024-03-01T17:42:19.554Z,78.53
2024-03-01T17:47:22.742Z,78.07
2024-03-01T17:52:26.249Z,78.38
2024-03-01T17:57:29.512Z,78.49
2024-03-01T18:02:32.844Z,78.80
2024-03-01T18:07:36.193Z,78.39
2024-03-01T18:12:39.427Z,79.18
2024-03-01T18:17:42.661Z,78.82
2024-03-01T18:22:46.006Z,79.30
2024-03-01T18:27:50.431Z,79.05
2024-03-01T18:32:57.237Z,78.53
2024-03-01T18:38:00.531Z,78.32
2024-03-01T18:43:04.260Z,78.67
2024-03-01T18:48:07.995Z,78.74
2024-03-01T18:53:11.195Z,78.94
2024-03-01T18:58:14.696Z,79.52
2024-03-01T19:03:18.805Z,78.46
2024-03-01T19:08:22.637Z,77.77
2024-03-01T19:13:31.101Z,77.49
2024-03-01T19:18:34.868Z,77.17
2024-03-01T19:23:37.982Z,77.46
2024-03-01T19:28:44.537Z,77.39
2024-03-01T19:33:47.808Z,77.43
2024-03-01T19:38:51.090Z,76.74
2024-03-01T19:43:54.762Z,77.78
2024-03-01T19:48:58.630Z,79.61
2024-03-01T19:54:02.164Z,79.39
2024-03-01T19:59:05.457Z,79.01
2024-03-01T20:04:08.794Z,77.79
2024-03-01T20:09:14.219Z,77.78
2024-03-01T20:14:17.363Z,79.24
2024-03-01T20:19:20.773Z,78.01
2024-03-01T20:24:26.464Z,78.00
2024-03-01T20:29:29.608Z,77.64
2024-03-01T20:34:32.881Z,77.33
2024-03-01T20:39:36.161Z,75.89
2024-03-01T20:44:41.992Z,76.39
2024-03-01T20:49:45.735Z,77.58
2024-03-01T20:54:49.375Z,76.09
2024-03-01T20:59:55.795Z,76.19
2024-03-01T21:04:59.443Z,75.59
2024-03-01T21:10:07.324Z,76.63
2024-03-01T21:15:10.861Z,77.57
2024-03-01T21:20:16.176Z,77.30
2024-03-01T21:25:19.636Z,77.08
2024-03-01T21:30:23.081Z,76.51
2024-03-01T21:35:26.304Z,76.81
2024-03-01T21:40:29.798Z,76.82
2024-03-01T21:45:33.078Z,76.72
2024-03-01T21:50:36.336Z,77.06
2024-03-01T21:55:39.601Z,76.82
2024-03-01T22:00:43.082Z,76.91
2024-03-01T22:05:46.418Z,77.58
2024-03-01T22:10:49.996Z,77.80
2024-03-01T22:15:53.351Z,78.09
2024-03-01T22:20:56.564Z,78.00
2024-03-01T22:25:59.804Z,78.63
2024-03-01T22:31:03.988Z,79.04
2024-03-01T22:36:10.054Z,78.84
2024-03-01T22:41:14.114Z,77.78
2024-03-01T22:46:17.448Z,78.60
2024-03-01T22:51:20.775Z,78.52
2024-03-01T22:56:24.297Z,78.09
2024-03-01T23:01:29.155Z,77.52
2024-03-01T23:06:32.737Z,77.67
2024-03-01T23:11:41.051Z,77.58
2024-03-01T23:16:44.886Z,78.21
2024-03-01T23:21:48.032Z,78.25
2024-03-01T23:26:51.394Z,78.55
2024-03-01T23:31:54.649Z,78.25
2024-03-01T23:37:00.343Z,77.98
2024-03-01T23:42:05.238Z,77.80
2024-03-01T23:47:08.367Z,77.38
2024-03-01T23:52:12.004Z,77.32
2024-03-01T23:57:15.746Z,77.65
